Time;durP1;ratioP1;P1;durP2;ratioP2;P2;SDS_P1;SDS_P2;PMS_P1;PMS_P2;Temp;Humidity;BMP_temperature;BMP_pressure;BME280_temperature;BME280_humidity;BME280_pressure;Samples;Min_cycle;Max_cycle;Signal;HPM_P1;HPM_P2
2022/12/17 13:06:40;;;;;;;28.75;18.20;;;5.70;99.90;;;;;;5053740;28;20102;-56
2022/12/17 13:09:19;;;;;;;27.38;15.80;;;5.80;99.90;;;;;;5068354;28;20048;-55
2022/12/17 13:12:03;;;;;;;22.05;13.88;;;5.70;99.90;;;;;;5053189;28;20029;-55
2022/12/17 13:14:49;;;;;;;123.45;110.35;;;5.80;99.90;;;;;;5053481;28;20040;-54
2022/12/17 13:17:17;;;;;;;32.75;19.75;;;6.20;99.90;;;;;;5053678;28;20067;-56
2022/12/17 13:19:56;;;;;;;195.27;132.40;;;5.90;99.90;;;;;;5053167;28;20036;-56
2022/12/17 13:22:22;;;;;;;30.17;20.75;;;5.90;99.90;;;;;;5053460;28;20490;-56
2022/12/17 13:24:51;;;;;;;35.38;19.83;;;6.00;99.90;;;;;;5053176;28;20064;-54
2022/12/17 13:27:35;;;;;;;34.03;21.95;;;6.10;99.90;;;;;;5053693;28;20025;-55
2022/12/17 13:30:16;;;;;;;42.33;25.90;;;6.00;99.90;;;;;;5052984;28;20033;-56
2022/12/17 13:33:11;;;;;;;33.55;21.27;;;6.00;99.90;;;;;;5068064;28;20445;-54
2022/12/17 13:35:52;;;;;;;38.30;24.10;;;6.00;99.90;;;;;;5052610;28;20032;-53
2022/12/17 13:38:41;;;;;;;24.23;15.82;;;6.00;99.90;;;;;;5053044;28;20104;-58
2022/12/17 13:41:13;;;;;;;32.88;19.77;;;5.90;99.90;;;;;;5052946;28;20087;-57
2022/12/17 13:43:47;;;;;;;28.92;18.50;;;6.10;99.90;;;;;;5052976;28;20025;-55
2022/12/17 13:46:17;;;;;;;32.88;20.55;;;5.90;99.90;;;;;;5052077;28;20056;-53
2022/12/17 13:48:43;;;;;;;33.08;20.65;;;6.00;99.90;;;;;;5050753;28;20037;-60
2022/12/17 13:51:19;;;;;;;28.85;19.48;;;6.10;99.90;;;;;;5051516;28;20052;-52
2022/12/17 13:53:53;;;;;;;34.80;21.55;;;5.90;99.90;;;;;;5051864;28;20021;-56
2022/12/17 13:56:24;;;;;;;34.05;22.08;;;6.10;99.90;;;;;;5066474;28;20108;-56
2022/12/17 13:58:52;;;;;;;32.90;20.73;;;6.20;99.90;;;;;;5052046;28;20021;-61
2022/12/17 14:01:18;;;;;;;34.15;21.50;;;6.10;99.90;;;;;;5066235;28;20037;-52
2022/12/17 14:03:53;;;;;;;34.13;22.42;;;6.00;99.90;;;;;;5048856;28;20032;-53
2022/12/17 14:06:20;;;;;;;17.27;9.93;;;6.00;99.90;;;;;;5063195;28;20051;-53
2022/12/17 14:08:48;;;;;;;28.52;17.42;;;5.90;99.90;;;;;;5051592;28;20071;-51
2022/12/17 14:14:01;;;;;;;18.25;9.70;;;6.00;99.90;;;;;;5031621;28;20400;-55
2022/12/17 14:16:27;;;;;;;28.42;18.33;;;5.90;99.90;;;;;;5047328;28;20360;-59
2022/12/17 14:18:57;;;;;;;22.60;13.48;;;6.00;99.90;;;;;;5066003;28;20037;-55
2022/12/17 14:21:25;;;;;;;36.20;22.08;;;5.90;99.90;;;;;;5051638;28;20426;-56
2022/12/17 14:23:51;;;;;;;25.63;16.75;;;6.00;99.90;;;;;;5051378;28;20060;-51
2022/12/17 14:26:17;;;;;;;32.42;21.25;;;5.80;99.90;;;;;;5051386;28;20048;-53
2022/12/17 14:28:52;;;;;;;27.50;15.40;;;5.80;99.90;;;;;;5051456;28;20025;-52
2022/12/17 14:31:23;;;;;;;35.33;22.40;;;5.90;99.90;;;;;;5051034;28;20112;-56
2022/12/17 14:34:06;;;;;;;33.20;22.23;;;6.00;99.90;;;;;;5055628;28;20029;-56
2022/12/17 14:36:35;;;;;;;26.65;18.33;;;6.00;99.90;;;;;;5055445;28;20025;-56
2022/12/17 14:39:10;;;;;;;28.92;17.08;;;5.90;99.90;;;;;;5055057;28;20025;-56
2022/12/17 14:44:27;;;;;;;38.45;23.95;;;6.00;99.90;;;;;;5054643;28;20090;-56
2022/12/17 14:47:07;;;;;;;38.83;22.65;;;6.00;99.90;;;;;;5053771;28;20094;-55
2022/12/17 14:49:33;;;;;;;31.80;20.95;;;6.00;99.90;;;;;;5054636;28;20037;-56
2022/12/17 14:52:00;;;;;;;32.10;19.73;;;6.00;99.90;;;;;;5055048;28;20029;-55
2022/12/17 14:54:29;;;;;;;35.55;21.95;;;6.00;99.90;;;;;;5055916;28;20029;-55
2022/12/17 14:56:57;;;;;;;33.97;21.10;;;6.00;99.90;;;;;;5055994;28;20472;-55
2022/12/17 14:59:24;;;;;;;34.35;23.08;;;6.00;99.90;;;;;;5056009;28;20021;-55
2022/12/17 15:01:51;;;;;;;34.22;22.17;;;6.20;99.90;;;;;;5056081;28;20032;-55
2022/12/17 15:04:17;;;;;;;36.55;23.20;;;6.20;99.90;;;;;;5055802;28;20051;-55
2022/12/17 15:06:43;;;;;;;35.72;22.27;;;6.40;99.90;;;;;;5055753;28;20507;-56
2022/12/17 15:09:11;;;;;;;32.95;20.75;;;6.30;99.90;;;;;;5055769;28;20025;-55
2022/12/17 15:11:37;;;;;;;22.85;13.13;;;6.20;99.90;;;;;;5055772;28;20029;-56
2022/12/17 15:14:03;;;;;;;30.15;19.50;;;6.10;99.90;;;;;;5055930;28;20031;-55
2022/12/17 15:16:29;;;;;;;30.80;19.55;;;5.70;99.90;;;;;;5055749;28;20026;-56
2022/12/17 15:18:55;;;;;;;29.42;18.90;;;6.00;99.90;;;;;;5055864;28;20472;-55
2022/12/17 15:21:22;;;;;;;30.77;19.60;;;6.10;99.90;;;;;;5055410;28;20033;-56
2022/12/17 15:23:48;;;;;;;23.80;13.82;;;5.70;99.90;;;;;;5055562;28;20036;-56
2022/12/17 15:26:14;;;;;;;28.73;19.17;;;5.70;99.90;;;;;;5055283;28;20041;-55
2022/12/17 15:28:41;;;;;;;28.73;16.55;;;5.70;99.90;;;;;;5055392;28;20375;-56
2022/12/17 15:31:11;;;;;;;32.72;20.45;;;5.70;99.90;;;;;;5055548;28;20029;-55
2022/12/17 15:33:37;;;;;;;29.60;19.88;;;6.10;99.90;;;;;;5055278;28;20033;-56
2022/12/17 15:36:03;;;;;;;28.90;19.50;;;5.70;99.90;;;;;;5055421;28;20032;-55
2022/12/17 15:38:29;;;;;;;30.02;17.25;;;5.50;99.90;;;;;;5054836;28;20399;-56
2022/12/17 15:40:58;;;;;;;27.13;18.35;;;6.00;99.90;;;;;;5054397;28;20025;-56
2022/12/17 15:43:23;;;;;;;28.27;15.93;;;5.60;99.90;;;;;;5054157;28;20020;-56
2022/12/17 15:45:50;;;;;;;31.98;20.13;;;5.90;99.90;;;;;;5053722;28;20408;-55
2022/12/17 15:48:22;;;;;;;32.67;19.38;;;5.80;99.90;;;;;;5068403;28;20044;-56
2022/12/17 15:50:48;;;;;;;34.53;21.87;;;;;;;;;;5053999;28;20503;-56
2022/12/17 15:53:14;;;;;;;35.38;22.50;;;6.00;99.90;;;;;;5053764;28;20257;-56
2022/12/17 15:55:40;;;;;;;37.72;23.90;;;6.00;99.90;;;;;;5034916;28;20033;-56
2022/12/17 15:58:09;;;;;;;30.73;15.60;;;6.10;99.90;;;;;;5053925;28;20028;-55
2022/12/17 16:00:35;;;;;;;36.78;23.75;;;5.90;99.90;;;;;;5053345;28;20549;-55
2022/12/17 16:03:01;;;;;;;35.60;23.02;;;6.30;99.90;;;;;;5033778;28;20061;-53
2022/12/17 16:05:27;;;;;;;37.53;24.65;;;6.20;99.90;;;;;;5051707;28;20055;-53
2022/12/17 16:07:52;;;;;;;36.65;21.75;;;6.00;99.90;;;;;;5053549;28;20353;-53
2022/12/17 16:10:18;;;;;;;37.20;24.88;;;6.10;99.90;;;;;;5034308;28;20669;-54
2022/12/17 16:12:44;;;;;;;37.78;23.88;;;6.00;99.90;;;;;;5053835;28;20551;-52
2022/12/17 16:15:11;;;;;;;37.95;24.35;;;5.90;99.90;;;;;;5053564;28;20108;-53
2022/12/17 16:17:37;;;;;;;41.08;26.42;;;6.00;99.90;;;;;;5067168;28;20503;-52
2022/12/17 16:20:04;;;;;;;170.05;116.25;;;6.10;99.90;;;;;;5052937;28;20032;-55
2022/12/17 16:22:30;;;;;;;46.35;29.48;;;6.10;99.90;;;;;;5034478;28;20049;-54
2022/12/17 16:24:56;;;;;;;50.08;33.63;;;6.20;99.90;;;;;;5053166;28;20029;-54
2022/12/17 16:27:21;;;;;;;42.17;26.42;;;6.30;99.90;;;;;;5052965;28;20025;-55
2022/12/17 16:29:47;;;;;;;35.42;24.02;;;6.30;99.90;;;;;;5053250;28;20109;-55
2022/12/17 16:32:14;;;;;;;37.20;23.38;;;6.30;99.90;;;;;;5052999;28;20562;-53
2022/12/17 16:34:40;;;;;;;41.42;25.58;;;6.20;99.90;;;;;;5051724;28;20576;-54
2022/12/17 16:37:06;;;;;;;29.67;19.35;;;6.30;99.90;;;;;;5053029;28;20172;-55
2022/12/17 16:39:32;;;;;;;39.17;23.42;;;6.30;99.90;;;;;;5033865;28;20033;-54
2022/12/17 16:41:58;;;;;;;37.17;23.30;;;6.40;99.90;;;;;;5052847;28;20381;-53
2022/12/17 16:44:23;;;;;;;37.15;24.17;;;6.40;99.90;;;;;;5052704;28;20029;-53
2022/12/17 16:46:51;;;;;;;40.08;25.55;;;6.50;99.90;;;;;;5052754;28;20087;-52
2022/12/17 16:49:22;;;;;;;47.75;26.73;;;6.50;99.90;;;;;;5052330;28;20025;-54
2022/12/17 16:51:50;;;;;;;38.30;25.40;;;6.40;99.90;;;;;;5052647;28;20025;-52
2022/12/17 16:54:18;;;;;;;42.80;28.80;;;6.30;99.90;;;;;;5052038;28;20356;-54
2022/12/17 16:56:45;;;;;;;34.75;22.63;;;6.30;99.90;;;;;;5051292;28;20032;-58
2022/12/17 16:59:12;;;;;;;39.20;26.42;;;6.30;99.90;;;;;;5030150;28;20053;-57
2022/12/17 17:01:41;;;;;;;35.85;24.48;;;6.50;99.90;;;;;;5030061;28;20104;-54
2022/12/17 17:04:08;;;;;;;36.03;23.90;;;6.20;99.90;;;;;;5029943;28;20520;-55
2022/12/17 17:06:39;;;;;;;38.40;24.58;;;6.30;99.90;;;;;;5029970;28;20053;-56
2022/12/17 17:09:05;;;;;;;34.22;23.05;;;;;;;;;;5029803;28;20534;-56
2022/12/17 17:11:31;;;;;;;31.55;19.42;;;6.70;99.90;;;;;;5029648;28;20029;-55
2022/12/17 17:13:57;;;;;;;36.63;22.42;;;6.20;99.90;;;;;;5013152;28;20033;-56
2022/12/17 17:16:24;;;;;;;35.28;20.90;;;6.40;99.90;;;;;;5030507;28;20049;-57
2022/12/17 17:18:50;;;;;;;36.58;24.42;;;6.50;99.90;;;;;;5014766;28;20431;-50
2022/12/17 17:21:19;;;;;;;34.03;22.88;;;6.40;99.90;;;;;;5031519;28;20041;-52
2022/12/17 17:23:50;;;;;;;38.33;24.35;;;6.40;99.90;;;;;;5031049;28;20075;-54
2022/12/17 17:26:16;;;;;;;33.80;22.15;;;6.30;99.90;;;;;;5030820;28;20044;-53
2022/12/17 17:28:44;;;;;;;33.65;20.02;;;6.20;99.90;;;;;;5031021;28;20428;-56
2022/12/17 17:31:11;;;;;;;28.77;17.02;;;6.20;99.90;;;;;;5051189;28;20036;-54
2022/12/17 17:33:39;;;;;;;37.30;23.77;;;6.10;99.90;;;;;;5052998;28;20064;-55
2022/12/17 17:36:32;;;;;;;31.45;21.05;;;6.10;99.90;;;;;;5050984;28;20040;-56
2022/12/17 17:38:58;;;;;;;;;;;5.90;99.90;;;;;;5052212;28;20037;-55
2022/12/17 17:41:26;;;;;;;28.60;17.77;;;6.00;99.90;;;;;;5049114;28;19915;-54
2022/12/17 17:44:05;;;;;;;30.77;19.60;;;6.10;99.90;;;;;;5048984;28;20032;-55
2022/12/17 17:46:32;;;;;;;32.92;20.80;;;6.00;99.90;;;;;;5048600;28;20048;-56
2022/12/17 17:48:59;;;;;;;34.60;22.83;;;6.10;99.90;;;;;;5050849;28;20029;-54
2022/12/17 17:51:28;;;;;;;29.30;19.05;;;6.10;99.90;;;;;;5051076;28;20037;-57
2022/12/17 17:53:54;;;;;;;34.60;21.92;;;6.20;99.90;;;;;;5050721;28;20487;-53
2022/12/17 17:56:23;;;;;;;37.42;22.67;;;6.20;99.90;;;;;;5033646;28;20128;-53
2022/12/17 17:59:10;;;;;;;34.03;21.25;;;6.20;99.90;;;;;;5050659;28;20032;-60
2022/12/17 18:01:41;;;;;;;29.20;19.13;;;6.00;99.90;;;;;;5050542;28;20135;-55
2022/12/17 18:04:10;;;;;;;29.90;18.73;;;5.90;99.90;;;;;;5010504;28;20121;-54
2022/12/17 18:06:37;;;;;;;29.67;16.73;;;5.80;99.90;;;;;;5010141;28;20556;-53
2022/12/17 18:09:04;;;;;;;20.92;13.02;;;5.80;99.90;;;;;;5013702;28;20117;-59
2022/12/17 18:11:31;;;;;;;27.00;16.42;;;5.60;99.90;;;;;;5016512;28;20128;-55
2022/12/17 18:13:58;;;;;;;28.42;18.48;;;5.50;99.90;;;;;;5030702;28;20033;-55
2022/12/17 18:16:30;;;;;;;22.70;12.43;;;5.60;99.90;;;;;;5033568;28;20069;-56
2022/12/17 18:18:59;;;;;;;23.42;14.68;;;6.60;99.90;;;;;;5031494;28;20409;-58
2022/12/17 18:21:27;;;;;;;28.48;18.17;;;5.70;99.90;;;;;;5033398;28;20039;-59
2022/12/17 18:23:55;;;;;;;28.58;18.85;;;5.70;99.90;;;;;;5033105;28;20595;-57
2022/12/17 18:26:23;;;;;;;30.30;19.02;;;5.80;99.90;;;;;;5033107;28;20034;-55
2022/12/17 18:28:49;;;;;;;28.88;18.15;;;5.70;99.90;;;;;;5033022;28;20106;-59
2022/12/17 18:31:17;;;;;;;32.83;19.98;;;5.70;99.90;;;;;;5032994;28;20479;-58
2022/12/17 18:33:48;;;;;;;85.40;37.55;;;5.50;99.90;;;;;;5033018;28;20108;-58
2022/12/17 18:36:20;;;;;;;21.50;11.67;;;5.40;99.90;;;;;;5068657;28;20115;-55
2022/12/17 18:38:46;;;;;;;26.57;15.17;;;5.40;99.90;;;;;;5036477;28;20270;-59
2022/12/17 18:44:03;;;;;;;21.30;12.95;;;5.50;99.90;;;;;;5055594;28;20044;-53
2022/12/17 18:46:30;;;;;;;28.25;16.83;;;5.40;99.90;;;;;;5054972;28;20093;-57
2022/12/17 18:48:57;;;;;;;27.67;16.98;;;5.40;99.90;;;;;;5055270;28;20439;-58
2022/12/17 18:51:23;;;;;;;20.20;12.35;;;5.30;99.90;;;;;;5055416;28;20021;-53
2022/12/17 18:53:49;;;;;;;26.35;15.65;;;5.30;99.90;;;;;;5053080;28;20082;-55
2022/12/17 18:56:15;;;;;;;20.30;12.45;;;5.30;99.90;;;;;;5055186;28;20108;-55
2022/12/17 18:58:42;;;;;;;26.73;16.67;;;5.20;99.90;;;;;;5058717;28;20029;-59
2022/12/17 19:01:19;;;;;;;30.75;17.52;;;5.10;99.90;;;;;;5057690;28;20074;-60
2022/12/17 19:03:45;;;;;;;28.90;14.88;;;5.20;99.90;;;;;;5059459;28;20025;-53
2022/12/17 19:06:11;;;;;;;26.42;16.38;;;5.20;99.90;;;;;;5059633;28;20041;-57
2022/12/17 19:08:36;;;;;;;26.33;14.93;;;5.20;99.90;;;;;;5057382;28;20041;-57
2022/12/17 19:11:06;;;;;;;27.27;17.52;;;5.20;99.90;;;;;;5056062;28;20029;-57
2022/12/17 19:13:32;;;;;;;28.25;18.35;;;5.30;99.90;;;;;;5055344;28;20021;-59
2022/12/17 19:16:12;;;;;;;31.08;16.70;;;5.30;99.90;;;;;;5054837;28;20529;-53
2022/12/17 19:18:39;;;;;;;34.78;19.88;;;5.30;99.90;;;;;;5068759;28;20037;-54
2022/12/17 19:21:07;;;;;;;27.35;18.60;;;5.40;99.90;;;;;;5054828;28;20090;-53
2022/12/17 19:23:33;;;;;;;18.67;11.05;;;5.40;99.90;;;;;;5016797;28;20033;-57
2022/12/17 19:26:07;;;;;;;23.02;13.45;;;5.30;99.90;;;;;;5033597;28;20056;-58
2022/12/17 19:28:33;;;;;;;30.77;17.73;;;5.30;99.90;;;;;;5032422;28;20076;-52
2022/12/17 19:30:59;;;;;;;31.67;19.42;;;5.30;99.90;;;;;;5015560;28;20124;-57
2022/12/17 19:33:25;;;;;;;30.98;19.50;;;5.40;99.90;;;;;;5032117;28;20049;-59
2022/12/17 19:36:00;;;;;;;30.58;19.25;;;5.40;99.90;;;;;;5032113;28;20034;-53
2022/12/17 19:38:26;;;;;;;30.17;18.38;;;5.40;99.90;;;;;;5015227;28;20037;-53
2022/12/17 19:40:52;;;;;;;28.40;17.27;;;5.40;99.90;;;;;;5031966;28;20051;-57
2022/12/17 19:43:17;;;;;;;33.25;20.10;;;5.40;99.90;;;;;;5031633;28;20045;-53
2022/12/17 19:45:43;;;;;;;31.70;20.92;;;5.50;99.90;;;;;;5031436;28;20053;-56
2022/12/17 19:48:13;;;;;;;30.98;18.13;;;5.50;99.90;;;;;;5031952;28;20033;-58
2022/12/17 19:50:39;;;;;;;28.42;17.08;;;5.50;99.90;;;;;;5031919;28;20111;-54
2022/12/17 19:53:05;;;;;;;28.83;19.05;;;5.50;99.90;;;;;;5031967;28;20057;-59
2022/12/17 19:55:31;;;;;;;35.00;19.45;;;5.50;99.90;;;;;;5052092;28;20033;-59
2022/12/17 19:57:57;;;;;;;31.08;18.48;;;5.60;99.90;;;;;;5054221;28;20025;-55
2022/12/17 20:00:22;;;;;;;25.42;15.35;;;5.60;99.90;;;;;;5052297;28;20036;-57
2022/12/17 20:02:48;;;;;;;26.80;16.55;;;5.50;99.90;;;;;;5053750;28;20029;-57
2022/12/17 20:05:14;;;;;;;31.80;19.60;;;5.50;99.90;;;;;;5053566;28;20025;-58
2022/12/17 20:07:39;;;;;;;28.92;18.58;;;5.60;99.90;;;;;;5053768;28;20100;-59
2022/12/17 20:10:05;;;;;;;29.52;16.13;;;5.60;99.90;;;;;;5053549;28;20112;-58
2022/12/17 20:12:31;;;;;;;33.53;20.30;;;7.10;99.90;;;;;;5053606;28;20029;-55
2022/12/17 20:14:57;;;;;;;29.17;19.17;;;5.70;99.90;;;;;;5053593;28;20083;-56
2022/12/17 20:17:24;;;;;;;33.10;19.10;;;5.80;99.90;;;;;;5067917;28;20037;-57
2022/12/17 20:19:52;;;;;;;33.90;19.95;;;5.80;99.90;;;;;;5053594;28;20391;-54
2022/12/17 20:22:18;;;;;;;31.63;19.80;;;5.90;99.90;;;;;;5053246;28;20112;-59
2022/12/17 20:24:43;;;;;;;32.55;19.42;;;5.90;99.90;;;;;;5053232;28;20053;-52
2022/12/17 20:27:09;;;;;;;32.40;20.80;;;5.80;99.90;;;;;;5053479;28;20068;-55
2022/12/17 20:29:35;;;;;;;31.13;19.65;;;5.70;99.90;;;;;;5052543;28;20087;-53
2022/12/17 20:32:01;;;;;;;30.75;18.77;;;5.70;99.90;;;;;;5053197;28;20029;-59
2022/12/17 20:34:27;;;;;;;27.92;17.75;;;5.70;99.90;;;;;;5067726;28;20389;-56
2022/12/17 20:36:53;;;;;;;29.30;17.63;;;5.70;99.90;;;;;;5053301;28;20466;-57
2022/12/17 20:39:19;;;;;;;30.88;18.83;;;5.60;99.90;;;;;;5034445;28;20253;-55
2022/12/17 20:41:44;;;;;;;31.33;17.95;;;5.60;99.90;;;;;;5067491;28;20163;-57
2022/12/17 20:44:13;;;;;;;33.35;20.52;;;5.50;99.90;;;;;;5052878;28;20021;-56
2022/12/17 20:46:40;;;;;;;26.05;17.13;;;5.50;99.90;;;;;;5052545;28;20049;-53
2022/12/17 20:49:06;;;;;;;32.97;19.92;;;5.50;99.90;;;;;;5052757;28;20028;-54
2022/12/17 20:51:33;;;;;;;30.70;19.05;;;5.50;99.90;;;;;;5052952;28;20031;-57
2022/12/17 20:54:00;;;;;;;32.83;19.15;;;5.50;99.90;;;;;;5052862;28;20219;-58
2022/12/17 20:56:31;;;;;;;25.20;14.65;;;5.50;99.90;;;;;;5052685;28;20361;-53
2022/12/17 20:59:03;;;;;;;28.83;16.83;;;5.40;99.90;;;;;;5067169;28;20037;-52
2022/12/17 21:01:31;;;;;;;31.23;19.42;;;5.30;99.90;;;;;;5052603;28;20024;-56
2022/12/17 21:03:58;;;;;;;29.67;18.60;;;5.30;99.90;;;;;;5052747;28;20033;-53
2022/12/17 21:06:35;;;;;;;31.05;19.67;;;5.30;99.90;;;;;;5052421;28;20068;-55
2022/12/17 21:09:02;;;;;;;31.35;18.60;;;5.30;99.90;;;;;;5052574;28;20025;-55
2022/12/17 21:11:30;;;;;;;34.08;20.02;;;5.40;99.90;;;;;;5052819;28;20029;-55
2022/12/17 21:13:56;;;;;;;33.33;19.73;;;5.50;99.90;;;;;;5052504;28;20035;-52
2022/12/17 21:16:25;;;;;;;33.38;21.13;;;5.60;99.90;;;;;;5052391;28;20021;-52
2022/12/17 21:18:51;;;;;;;35.83;21.35;;;5.70;99.90;;;;;;5033638;28;20063;-53
2022/12/17 21:21:21;;;;;;;32.20;21.33;;;5.70;99.90;;;;;;5052237;28;20044;-53
2022/12/17 21:23:48;;;;;;;31.13;19.55;;;5.80;99.90;;;;;;5052372;28;20075;-53
2022/12/17 21:26:21;;;;;;;33.42;20.42;;;5.80;99.90;;;;;;5052176;28;20044;-57
2022/12/17 21:28:48;;;;;;;30.48;19.38;;;5.70;99.90;;;;;;5049976;28;20041;-56
2022/12/17 21:31:25;;;;;;;31.40;19.50;;;5.60;99.90;;;;;;5052318;28;20041;-55
2022/12/17 21:33:52;;;;;;;26.33;14.98;;;5.50;99.90;;;;;;5052188;28;20051;-57
2022/12/17 21:36:20;;;;;;;25.38;14.73;;;5.40;99.90;;;;;;5052257;28;20028;-53
2022/12/17 21:38:48;;;;;;;30.85;19.58;;;5.30;99.90;;;;;;5016710;28;20045;-51
2022/12/17 21:41:19;;;;;;;30.70;16.48;;;5.30;99.90;;;;;;5051913;28;20112;-56
2022/12/17 21:43:45;;;;;;;34.55;22.48;;;5.20;99.90;;;;;;5051792;28;20025;-54
2022/12/17 21:46:12;;;;;;;37.95;22.98;;;5.30;99.90;;;;;;5065996;28;20106;-53
2022/12/17 21:48:40;;;;;;;35.45;22.63;;;5.00;99.90;;;;;;5051095;28;20484;-57
2022/12/17 21:51:09;;;;;;;36.38;23.10;;;5.30;99.90;;;;;;5048870;28;20032;-53
2022/12/17 21:53:37;;;;;;;38.15;24.73;;;5.50;99.90;;;;;;5051136;28;20130;-57
2022/12/17 21:56:05;;;;;;;37.85;23.48;;;5.60;99.90;;;;;;5049082;28;20041;-56
2022/12/17 21:58:32;;;;;;;31.33;20.95;;;5.60;99.90;;;;;;5048259;28;20041;-58
2022/12/17 22:00:58;;;;;;;31.25;19.65;;;5.60;99.90;;;;;;5051874;28;20040;-56
2022/12/17 22:03:24;;;;;;;41.80;23.67;;;5.60;99.90;;;;;;5016316;28;20029;-55
2022/12/17 22:05:49;;;;;;;55.42;29.75;;;5.70;99.90;;;;;;5051838;28;20037;-53
2022/12/17 22:08:15;;;;;;;45.28;26.10;;;5.50;99.90;;;;;;5051907;28;20027;-52
2022/12/17 22:10:42;;;;;;;27.58;15.98;;;5.60;99.90;;;;;;5066318;28;20091;-54
2022/12/17 22:15:54;;;;;;;35.22;22.30;;;5.60;99.90;;;;;;5052365;28;20048;-57
2022/12/17 22:18:19;;;;;;;36.47;21.77;;;5.50;99.90;;;;;;5066144;28;20766;-55
2022/12/17 22:20:55;;;;;;;34.70;21.38;;;5.60;99.90;;;;;;5051716;28;20108;-58
2022/12/17 22:23:21;;;;;;;40.50;23.23;;;5.60;99.90;;;;;;5051455;28;20044;-56
2022/12/17 22:25:47;;;;;;;31.67;18.95;;;5.60;99.90;;;;;;5051867;28;20037;-59
2022/12/17 22:28:13;;;;;;;39.78;24.05;;;5.60;99.90;;;;;;5049296;28;20043;-55
2022/12/17 22:33:23;;;;;;;29.90;19.25;;;5.50;99.90;;;;;;5052205;28;20499;-53
2022/12/17 22:35:49;;;;;;;36.97;20.13;;;5.40;99.90;;;;;;5051814;28;20025;-51
2022/12/17 22:38:15;;;;;;;35.13;21.13;;;5.30;99.90;;;;;;5052643;28;20029;-54
2022/12/17 22:40:40;;;;;;;35.05;22.02;;;5.30;99.90;;;;;;5052301;28;20396;-54
2022/12/17 22:45:56;;;;;;;35.72;20.77;;;5.50;99.90;;;;;;5052378;28;20059;-56
2022/12/17 22:48:22;;;;;;;35.83;21.95;;;5.50;99.90;;;;;;5052648;28;20024;-52
2022/12/17 22:50:48;;;;;;;24.00;14.55;;;5.50;99.90;;;;;;5050458;28;20091;-54
2022/12/17 22:53:14;;;;;;;39.67;24.60;;;5.30;99.90;;;;;;5052003;28;20033;-56
2022/12/17 22:55:39;;;;;;;34.10;20.42;;;5.20;99.90;;;;;;5055923;28;20427;-55
2022/12/17 22:58:05;;;;;;;29.33;18.58;;;5.30;99.90;;;;;;5056503;28;20052;-53
2022/12/17 23:00:33;;;;;;;29.45;17.58;;;5.20;99.90;;;;;;5053986;28;20036;-54
2022/12/17 23:02:59;;;;;;;24.20;16.40;;;5.10;99.90;;;;;;5020734;28;20047;-51
2022/12/17 23:05:26;;;;;;;26.58;16.20;;;5.10;99.90;;;;;;5056187;28;20025;-51
2022/12/17 23:07:53;;;;;;;24.40;15.18;;;5.00;99.90;;;;;;5055712;28;20053;-55
2022/12/17 23:10:20;;;;;;;20.70;12.20;;;5.10;99.90;;;;;;5056091;28;20060;-52
2022/12/17 23:12:50;;;;;;;24.45;15.90;;;5.10;99.90;;;;;;5055493;28;20078;-52
2022/12/17 23:15:19;;;;;;;23.15;13.05;;;5.10;99.90;;;;;;5056002;28;20059;-55
2022/12/17 23:17:45;;;;;;;20.23;11.75;;;5.10;99.90;;;;;;5055662;28;20039;-53
2022/12/17 23:20:11;;;;;;;23.75;14.70;;;5.10;99.90;;;;;;5053840;28;20033;-56
2022/12/17 23:22:37;;;;;;;24.30;16.00;;;5.10;99.90;;;;;;5055361;28;20029;-57
2022/12/17 23:25:03;;;;;;;24.48;15.52;;;5.20;99.90;;;;;;5055443;28;20387;-56
2022/12/17 23:27:28;;;;;;;25.30;14.75;;;5.20;99.90;;;;;;5055691;28;20033;-56
2022/12/17 23:29:54;;;;;;;25.08;14.73;;;5.00;99.90;;;;;;5055349;28;20051;-56
2022/12/17 23:32:20;;;;;;;26.38;17.45;;;5.10;99.90;;;;;;5055402;28;20031;-54
2022/12/17 23:34:46;;;;;;;20.73;13.13;;;5.20;99.90;;;;;;5054676;28;20056;-53
2022/12/17 23:37:11;;;;;;;26.80;17.35;;;5.00;99.90;;;;;;5055532;28;20104;-50
2022/12/17 23:39:37;;;;;;;25.30;16.73;;;5.10;99.90;;;;;;5055339;28;20499;-58
2022/12/17 23:42:03;;;;;;;25.33;15.82;;;4.90;99.90;;;;;;5055452;28;20025;-55
2022/12/17 23:44:29;;;;;;;27.00;16.58;;;5.00;99.90;;;;;;5053116;28;20443;-53
2022/12/17 23:46:54;;;;;;;30.02;18.15;;;4.90;99.90;;;;;;5054889;28;20120;-56
2022/12/17 23:49:20;;;;;;;26.83;17.15;;;5.00;99.90;;;;;;5055226;28;20491;-57
2022/12/17 23:51:46;;;;;;;25.63;16.77;;;5.10;99.90;;;;;;5019628;28;20128;-52
2022/12/17 23:54:11;;;;;;;25.80;16.20;;;5.20;99.90;;;;;;5055082;28;20025;-58
2022/12/17 23:56:37;;;;;;;24.95;14.57;;;5.30;99.90;;;;;;5053031;28;20044;-54
2022/12/17 23:59:03;;;;;;;24.85;15.75;;;5.10;99.90;;;;;;5054914;28;20087;-53
